Time;durP1;ratioP1;P1;durP2;ratioP2;P2;SDS_P1;SDS_P2;PMS_P1;PMS_P2;Temp;Humidity;BMP_temperature;BMP_pressure;BME280_temperature;BME280_humidity;BME280_pressure;Samples;Min_cycle;Max_cycle;Signal;HPM_P1;HPM_P2
2021/05/24 00:01:41;;;;;;;6.10;1.83;;;;;;;;;;5064261;28;20112;-68
2021/05/24 00:04:06;;;;;;;4.47;2.07;;;;;;;;;;5054420;28;20504;-68
2021/05/24 00:06:31;;;;;;;5.00;2.00;;;;;;;;;;5067039;28;20020;-68
2021/05/24 00:08:57;;;;;;;3.97;1.87;;;;;;;;;;5063105;28;20082;-68
2021/05/24 00:11:22;;;;;;;5.03;1.90;;;;;;;;;;5055578;28;20473;-67
2021/05/24 00:13:55;;;;;;;5.20;2.17;;;;;;;;;;5064025;28;20035;-67
2021/05/24 00:16:21;;;;;;;4.00;1.90;;;;;;;;;;5054697;28;20029;-68
2021/05/24 00:18:50;;;;;;;5.83;2.47;;;;;;;;;;5060278;28;20483;-68
2021/05/24 00:21:16;;;;;;;3.90;1.87;;;;;;;;;;5059208;28;20025;-68
2021/05/24 00:23:41;;;;;;;6.87;2.13;;;;;;;;;;5060109;28;20074;-68
2021/05/24 00:26:06;;;;;;;4.80;2.00;;;;;;;;;;5069420;28;20021;-67
2021/05/24 00:28:31;;;;;;;6.17;2.07;;;;;;;;;;5065336;28;20012;-68
2021/05/24 00:30:57;;;;;;;5.00;2.10;;;;;;;;;;5062424;28;20483;-68
2021/05/24 00:33:22;;;;;;;5.97;2.20;;;;;;;;;;5071958;28;20142;-67
2021/05/24 00:35:47;;;;;;;5.00;2.10;;;;;;;;;;5057140;28;20553;-67
2021/05/24 00:38:12;;;;;;;4.17;1.90;;;;;;;;;;5058807;28;20114;-68
2021/05/24 00:40:38;;;;;;;6.40;2.27;;;;;;;;;;5070143;28;20535;-68
2021/05/24 00:43:05;;;;;;;3.83;2.00;;;;;;;;;;5063274;28;20036;-67
2021/05/24 00:45:30;;;;;;;6.70;2.10;;;;;;;;;;5065761;28;20028;-68
2021/05/24 00:47:55;;;;;;;8.13;2.10;;;;;;;;;;5066324;28;20033;-68
2021/05/24 00:50:21;;;;;;;3.97;1.70;;;;;;;;;;5055409;28;20028;-68
2021/05/24 00:52:46;;;;;;;5.37;1.83;;;;;;;;;;5057049;28;20381;-68
2021/05/24 00:55:11;;;;;;;3.90;1.70;;;;;;;;;;5058140;28;20053;-68
2021/05/24 00:57:37;;;;;;;5.43;1.80;;;;;;;;;;5063402;28;20489;-68
2021/05/24 01:00:07;;;;;;;4.93;1.57;;;;;;;;;;5072626;28;20025;-67
2021/05/24 01:02:32;;;;;;;4.00;1.70;;;;;;;;;;5084032;22;20147;-66
2021/05/24 01:04:58;;;;;;;5.70;1.80;;;;;;;;;;5090928;28;20099;-66
2021/05/24 01:07:24;;;;;;;3.33;1.53;;;;;;;;;;5092479;28;20467;-66
2021/05/24 01:09:49;;;;;;;3.93;1.73;;;;;;;;;;5092775;28;20032;-66
2021/05/24 01:12:14;;;;;;;4.00;1.67;;;;;;;;;;5093035;28;20028;-66
2021/05/24 01:14:39;;;;;;;3.30;1.70;;;;;;;;;;5092834;28;20034;-66
2021/05/24 01:17:05;;;;;;;4.43;1.70;;;;;;;;;;5093640;28;20026;-66
2021/05/24 01:19:30;;;;;;;3.87;1.57;;;;;;;;;;5084250;28;20028;-66
2021/05/24 01:21:56;;;;;;;4.60;2.00;;;;;;;;;;5090305;28;20462;-66
2021/05/24 01:24:21;;;;;;;6.13;1.80;;;;;;;;;;5092181;28;20059;-66
2021/05/24 01:26:47;;;;;;;4.10;1.60;;;;;;;;;;5093969;28;20103;-66
2021/05/24 01:29:14;;;;;;;3.10;1.50;;;;;;;;;;5092038;28;20063;-66
2021/05/24 01:31:39;;;;;;;3.67;1.70;;;;;;;;;;5093342;28;20012;-66
2021/05/24 01:34:05;;;;;;;3.30;1.50;;;;;;;;;;5092117;28;20110;-66
2021/05/24 01:36:31;;;;;;;3.40;1.50;;;;;;;;;;5093330;28;20197;-66
2021/05/24 01:38:56;;;;;;;4.03;1.50;;;;;;;;;;5092777;28;20513;-66
2021/05/24 01:41:22;;;;;;;4.20;1.70;;;;;;;;;;5093881;28;20104;-66
2021/05/24 01:43:47;;;;;;;4.03;1.87;;;;;;;;;;5091793;28;20073;-66
2021/05/24 01:46:13;;;;;;;3.60;1.40;;;;;;;;;;5093335;28;20043;-66
2021/05/24 01:48:38;;;;;;;3.70;1.23;;;;;;;;;;5091907;28;20020;-66
2021/05/24 01:51:07;;;;;;;5.73;1.40;;;;;;;;;;5092296;28;20383;-66
2021/05/24 01:53:33;;;;;;;4.13;1.70;;;;;;;;;;5093562;28;20028;-67
2021/05/24 01:55:58;;;;;;;3.03;1.50;;;;;;;;;;5086436;28;20032;-66
2021/05/24 01:58:26;;;;;;;4.40;1.60;;;;;;;;;;5088776;28;20036;-66
2021/05/24 02:00:52;;;;;;;4.13;1.67;;;;;;;;;;5087630;28;20020;-66
2021/05/24 02:03:17;;;;;;;2.93;1.43;;;;;;;;;;5091511;28;20093;-66
2021/05/24 02:05:42;;;;;;;3.37;1.37;;;;;;;;;;5083347;28;20099;-66
2021/05/24 02:08:07;;;;;;;3.57;1.50;;;;;;;;;;5091627;28;20395;-67
2021/05/24 02:10:34;;;;;;;2.50;1.30;;;;;;;;;;5083540;28;20047;-66
2021/05/24 02:13:00;;;;;;;2.77;1.30;;;;;;;;;;5090453;28;20031;-66
2021/05/24 02:15:27;;;;;;;3.43;1.57;;;;;;;;;;5089906;28;20578;-66
2021/05/24 02:17:52;;;;;;;4.03;1.30;;;;;;;;;;5093626;28;20074;-66
2021/05/24 02:20:22;;;;;;;4.40;1.40;;;;;;;;;;5086863;28;20028;-66
2021/05/24 02:22:47;;;;;;;4.67;1.63;;;;;;;;;;5092190;28;20448;-66
2021/05/24 02:25:13;;;;;;;4.10;1.37;;;;;;;;;;5092521;28;20035;-66
2021/05/24 02:27:38;;;;;;;2.73;1.50;;;;;;;;;;5093727;28;20031;-66
2021/05/24 02:30:05;;;;;;;3.40;1.50;;;;;;;;;;5092466;28;20027;-66
2021/05/24 02:32:30;;;;;;;4.03;1.60;;;;;;;;;;5092435;28;20035;-66
2021/05/24 02:34:56;;;;;;;3.90;1.80;;;;;;;;;;5092751;28;20028;-66
2021/05/24 02:37:21;;;;;;;4.87;1.30;;;;;;;;;;5093300;28;20031;-67
2021/05/24 02:39:47;;;;;;;3.67;1.53;;;;;;;;;;5089835;28;20035;-66
2021/05/24 02:42:12;;;;;;;3.23;1.43;;;;;;;;;;5091260;28;20026;-66
2021/05/24 02:44:37;;;;;;;3.83;1.17;;;;;;;;;;5092406;28;20512;-66
2021/05/24 02:47:03;;;;;;;4.60;1.37;;;;;;;;;;5088917;28;20020;-66
2021/05/24 02:49:28;;;;;;;4.53;1.60;;;;;;;;;;5090268;28;20047;-66
2021/05/24 02:51:53;;;;;;;3.63;1.20;;;;;;;;;;5090662;28;20027;-66
2021/05/24 02:54:18;;;;;;;4.80;1.40;;;;;;;;;;5092907;28;20077;-66
2021/05/24 02:56:44;;;;;;;3.33;1.20;;;;;;;;;;5082692;28;20099;-66
2021/05/24 02:59:09;;;;;;;2.23;1.20;;;;;;;;;;5092279;28;20059;-66
2021/05/24 03:01:35;;;;;;;4.80;1.60;;;;;;;;;;5089903;28;20444;-66
2021/05/24 03:04:02;;;;;;;2.50;1.20;;;;;;;;;;5091510;28;20047;-66
2021/05/24 03:06:28;;;;;;;4.93;1.90;;;;;;;;;;5089497;28;20024;-66
2021/05/24 03:08:53;;;;;;;3.87;1.30;;;;;;;;;;5091564;28;20329;-66
2021/05/24 03:11:19;;;;;;;3.07;1.27;;;;;;;;;;5092151;28;20032;-66
2021/05/24 03:13:44;;;;;;;3.77;1.33;;;;;;;;;;5083986;28;20440;-66
2021/05/24 03:16:10;;;;;;;4.20;1.40;;;;;;;;;;5087240;28;20029;-66
2021/05/24 03:18:35;;;;;;;2.67;1.10;;;;;;;;;;5083141;28;20075;-66
2021/05/24 03:21:01;;;;;;;2.70;1.30;;;;;;;;;;5090609;28;20098;-66
2021/05/24 03:23:26;;;;;;;3.73;1.43;;;;;;;;;;5089235;28;20024;-66
2021/05/24 03:25:51;;;;;;;5.03;1.27;;;;;;;;;;5082588;28;20024;-66
2021/05/24 03:28:17;;;;;;;5.20;1.30;;;;;;;;;;5091929;28;20458;-66
2021/05/24 03:30:42;;;;;;;2.33;1.13;;;;;;;;;;5091732;28;20032;-66
2021/05/24 03:33:07;;;;;;;3.10;1.17;;;;;;;;;;5087438;28;20020;-66
2021/05/24 03:35:33;;;;;;;3.27;1.17;;;;;;;;;;5092435;28;20122;-66
2021/05/24 03:37:58;;;;;;;4.67;1.20;;;;;;;;;;5088951;28;20091;-66
2021/05/24 03:40:24;;;;;;;2.53;1.10;;;;;;;;;;5087618;28;20093;-66
2021/05/24 03:42:49;;;;;;;3.53;1.10;;;;;;;;;;5087686;28;20038;-66
2021/05/24 03:45:16;;;;;;;2.67;1.30;;;;;;;;;;5091535;28;20036;-66
2021/05/24 03:47:42;;;;;;;3.00;1.20;;;;;;;;;;5088642;28;20039;-66
2021/05/24 03:50:07;;;;;;;2.00;1.10;;;;;;;;;;5091792;28;20082;-66
2021/05/24 03:52:33;;;;;;;3.93;1.07;;;;;;;;;;5093249;28;20106;-66
2021/05/24 03:54:58;;;;;;;4.63;1.80;;;;;;;;;;5095707;28;20112;-66
2021/05/24 03:57:23;;;;;;;2.37;1.17;;;;;;;;;;5093827;28;20234;-66
2021/05/24 03:59:48;;;;;;;2.13;1.00;;;;;;;;;;5096145;28;20356;-66
2021/05/24 04:02:14;;;;;;;2.90;1.50;;;;;;;;;;5086159;28;20170;-66
2021/05/24 04:04:40;;;;;;;2.90;1.00;;;;;;;;;;5096032;28;20036;-66
2021/05/24 04:07:07;;;;;;;2.90;1.20;;;;;;;;;;5087465;28;20028;-66
2021/05/24 04:09:33;;;;;;;3.03;1.10;;;;;;;;;;5095035;28;20107;-66
2021/05/24 04:11:58;;;;;;;4.80;1.20;;;;;;;;;;5090243;28;20154;-66
2021/05/24 04:14:23;;;;;;;2.77;1.10;;;;;;;;;;5095754;28;20044;-66
2021/05/24 04:16:49;;;;;;;2.10;1.00;;;;;;;;;;5095252;28;20353;-66
2021/05/24 04:19:14;;;;;;;3.83;1.10;;;;;;;;;;5094789;28;20032;-66
2021/05/24 04:21:40;;;;;;;2.53;1.10;;;;;;;;;;5095154;28;20067;-66
2021/05/24 04:24:06;;;;;;;2.50;1.27;;;;;;;;;;5095353;28;20031;-66
2021/05/24 04:26:31;;;;;;;2.70;1.20;;;;;;;;;;5095237;28;20020;-66
2021/05/24 04:28:57;;;;;;;1.87;0.90;;;;;;;;;;5090920;28;20372;-66
2021/05/24 04:31:23;;;;;;;1.83;0.93;;;;;;;;;;5093667;28;20444;-66
2021/05/24 04:33:48;;;;;;;3.47;1.00;;;;;;;;;;5093843;28;20492;-66
2021/05/24 04:36:13;;;;;;;2.40;1.03;;;;;;;;;;5095625;28;20066;-66
2021/05/24 04:38:39;;;;;;;2.53;1.07;;;;;;;;;;5094614;28;20028;-66
2021/05/24 04:41:04;;;;;;;2.63;0.90;;;;;;;;;;5094105;28;20047;-66
2021/05/24 04:43:32;;;;;;;1.83;0.90;;;;;;;;;;5092563;28;20158;-66
2021/05/24 04:45:57;;;;;;;3.37;0.93;;;;;;;;;;5094398;28;20084;-66
2021/05/24 04:48:22;;;;;;;2.63;1.10;;;;;;;;;;5094756;28;20036;-67
2021/05/24 04:50:48;;;;;;;2.43;0.90;;;;;;;;;;5094440;28;20031;-66
2021/05/24 04:53:13;;;;;;;1.83;0.73;;;;;;;;;;5094509;28;20108;-67
2021/05/24 04:55:38;;;;;;;3.03;0.90;;;;;;;;;;5094821;28;20038;-67
2021/05/24 04:58:06;;;;;;;1.97;0.90;;;;;;;;;;5086470;28;20490;-67
2021/05/24 05:00:31;;;;;;;2.77;1.17;;;;;;;;;;5095311;28;20027;-67
2021/05/24 05:02:56;;;;;;;1.90;1.03;;;;;;;;;;5085720;28;20547;-67
2021/05/24 05:05:22;;;;;;;5.73;1.17;;;;;;;;;;5089517;28;20031;-67
2021/05/24 05:07:47;;;;;;;2.50;0.80;;;;;;;;;;5090074;28;20478;-67
2021/05/24 05:10:12;;;;;;;2.07;0.80;;;;;;;;;;5094086;28;20152;-67
2021/05/24 05:12:37;;;;;;;1.80;0.77;;;;;;;;;;5094255;28;20448;-69
2021/05/24 05:15:03;;;;;;;3.33;0.90;;;;;;;;;;5092836;28;20085;-68
2021/05/24 05:17:28;;;;;;;2.33;0.70;;;;;;;;;;5083391;28;20040;-68
2021/05/24 05:19:54;;;;;;;3.27;0.90;;;;;;;;;;5094324;28;20085;-69
2021/05/24 05:22:19;;;;;;;2.43;0.90;;;;;;;;;;5091325;28;20434;-70
2021/05/24 05:24:44;;;;;;;2.10;0.87;;;;;;;;;;5091493;28;20452;-68
2021/05/24 05:27:10;;;;;;;2.00;0.70;;;;;;;;;;5090274;28;20023;-68
2021/05/24 05:29:35;;;;;;;3.73;0.83;;;;;;;;;;5090272;28;20029;-67
2021/05/24 05:32:00;;;;;;;2.43;1.37;;;;;;;;;;5093796;28;20067;-67
2021/05/24 05:34:25;;;;;;;3.47;0.80;;;;;;;;;;5088681;28;20028;-68
2021/05/24 05:36:51;;;;;;;4.00;0.80;;;;;;;;;;5089732;28;20052;-71
2021/05/24 05:39:16;;;;;;;1.27;0.70;;;;;;;;;;5093163;28;20043;-73
2021/05/24 05:41:42;;;;;;;1.30;0.60;;;;;;;;;;5092444;28;20024;-73
2021/05/24 05:44:07;;;;;;;1.83;0.80;;;;;;;;;;5088065;28;20024;-73
2021/05/24 05:46:33;;;;;;;1.80;0.70;;;;;;;;;;5087144;28;20028;-73
2021/05/24 05:48:58;;;;;;;1.20;0.50;;;;;;;;;;5090152;28;20119;-73
2021/05/24 05:51:24;;;;;;;3.10;0.83;;;;;;;;;;5087747;28;20043;-74
2021/05/24 05:53:51;;;;;;;1.47;0.73;;;;;;;;;;5093485;28;20081;-77
2021/05/24 05:56:16;;;;;;;1.33;0.50;;;;;;;;;;5088085;28;20074;-76
2021/05/24 05:58:41;;;;;;;0.67;0.50;;;;;;;;;;5092827;28;20584;-73
2021/05/24 06:01:06;;;;;;;2.57;0.80;;;;;;;;;;5084551;28;20025;-74
2021/05/24 06:03:32;;;;;;;2.27;0.83;;;;;;;;;;5089270;28;20048;-73
2021/05/24 06:05:58;;;;;;;1.80;0.60;;;;;;;;;;5091461;28;20027;-70
2021/05/24 06:08:23;;;;;;;1.73;0.70;;;;;;;;;;5093036;28;20034;-74
2021/05/24 06:10:48;;;;;;;3.23;1.00;;;;;;;;;;5093738;28;20024;-75
2021/05/24 06:13:14;;;;;;;2.00;0.70;;;;;;;;;;5093167;28;20047;-76
2021/05/24 06:15:39;;;;;;;2.10;0.60;;;;;;;;;;5088004;28;20093;-76
2021/05/24 06:18:05;;;;;;;1.80;0.63;;;;;;;;;;5092780;28;20028;-78
2021/05/24 06:20:31;;;;;;;3.30;0.70;;;;;;;;;;5091123;28;20058;-77
2021/05/24 06:22:56;;;;;;;3.97;0.55;;;;;;;;;;5091313;28;20031;-77
2021/05/24 06:25:21;;;;;;;3.92;0.80;;;;;;;;;;5090885;28;20028;-77
2021/05/24 06:27:47;;;;;;;1.13;0.55;;;;;;;;;;5092760;28;20048;-76
2021/05/24 06:30:12;;;;;;;2.83;0.60;;;;;;;;;;5092475;28;20077;-76
2021/05/24 06:32:37;;;;;;;2.25;0.50;;;;;;;;;;5087465;28;20032;-77
2021/05/24 06:35:03;;;;;;;1.35;0.60;;;;;;;;;;5085646;28;20032;-77
2021/05/24 06:37:29;;;;;;;1.08;0.40;;;;;;;;;;5087723;28;20028;-74
2021/05/24 06:39:54;;;;;;;1.63;0.60;;;;;;;;;;5090836;28;20505;-75
2021/05/24 06:42:19;;;;;;;1.95;0.93;;;;;;;;;;5086148;28;20036;-75
2021/05/24 06:44:45;;;;;;;2.15;0.50;;;;;;;;;;5090130;28;20037;-75
2021/05/24 06:47:11;;;;;;;1.38;0.50;;;;;;;;;;5090415;28;20043;-75
2021/05/24 06:49:36;;;;;;;1.23;0.52;;;;;;;;;;5092598;28;20032;-75
2021/05/24 06:52:02;;;;;;;3.60;0.60;;;;;;;;;;5091293;28;20020;-75
2021/05/24 06:54:28;;;;;;;1.67;0.40;;;;;;;;;;5089709;28;20093;-74
2021/05/24 06:56:53;;;;;;;2.58;0.55;;;;;;;;;;5092248;28;20028;-72
2021/05/24 06:59:18;;;;;;;1.70;0.50;;;;;;;;;;5092343;28;20122;-70
2021/05/24 07:01:43;;;;;;;2.17;0.70;;;;;;;;;;5085833;28;20569;-71
2021/05/24 07:04:09;;;;;;;1.55;0.50;;;;;;;;;;5086996;28;20055;-75
2021/05/24 07:06:34;;;;;;;1.92;0.50;;;;;;;;;;5088622;28;20024;-76
2021/05/24 07:08:59;;;;;;;1.73;0.60;;;;;;;;;;5079225;28;20021;-76
2021/05/24 07:11:24;;;;;;;0.85;0.40;;;;;;;;;;5091153;28;20036;-76
2021/05/24 07:13:50;;;;;;;0.65;0.40;;;;;;;;;;5089176;28;20107;-77
2021/05/24 07:16:16;;;;;;;2.47;0.75;;;;;;;;;;5085382;28;20082;-77
2021/05/24 07:18:41;;;;;;;1.80;0.50;;;;;;;;;;5089221;28;20028;-77
2021/05/24 07:21:06;;;;;;;1.27;0.50;;;;;;;;;;5091987;28;20032;-75
2021/05/24 07:23:31;;;;;;;1.15;0.35;;;;;;;;;;5087602;28;20039;-75
2021/05/24 07:25:57;;;;;;;2.40;0.40;;;;;;;;;;5083784;28;20032;-76
2021/05/24 07:28:23;;;;;;;1.95;0.68;;;;;;;;;;5084835;28;20021;-76
2021/05/24 07:30:48;;;;;;;0.95;0.35;;;;;;;;;;5089670;28;20039;-75
2021/05/24 07:33:13;;;;;;;0.85;0.40;;;;;;;;;;5090994;28;20032;-76
2021/05/24 07:35:38;;;;;;;2.38;0.60;;;;;;;;;;5087022;28;20066;-75
2021/05/24 07:38:04;;;;;;;1.30;0.57;;;;;;;;;;5090391;28;20080;-76
2021/05/24 07:40:29;;;;;;;2.35;0.85;;;;;;;;;;5086729;28;20043;-76
2021/05/24 07:42:54;;;;;;;3.28;0.57;;;;;;;;;;5086475;28;20028;-75
2021/05/24 07:45:20;;;;;;;1.77;0.40;;;;;;;;;;5091407;28;20040;-74
2021/05/24 07:47:45;;;;;;;0.90;0.30;;;;;;;;;;5089709;28;20031;-74
2021/05/24 07:50:10;;;;;;;1.30;0.40;;;;;;;;;;5086124;28;20020;-75
2021/05/24 07:52:36;;;;;;;0.52;0.20;;;;;;;;;;5090000;28;20036;-75
2021/05/24 07:55:02;;;;;;;0.35;0.30;;;;;;;;;;5080830;28;20384;-73
2021/05/24 07:57:27;;;;;;;1.20;0.52;;;;;;;;;;5082200;28;20020;-71
2021/05/24 07:59:53;;;;;;;0.95;0.30;;;;;;;;;;5091503;28;20103;-71
2021/05/24 08:02:18;;;;;;;2.00;0.50;;;;;;;;;;5091534;28;20040;-71
2021/05/24 08:04:43;;;;;;;0.80;0.30;;;;;;;;;;5080535;28;20396;-71
2021/05/24 08:07:08;;;;;;;2.20;0.40;;;;;;;;;;5084958;28;20024;-72
2021/05/24 08:09:34;;;;;;;4.10;0.40;;;;;;;;;;5079811;28;20032;-72
2021/05/24 08:11:59;;;;;;;3.92;0.50;;;;;;;;;;5092242;28;20020;-70
2021/05/24 08:14:24;;;;;;;1.30;0.45;;;;;;;;;;5085826;28;20032;-73
2021/05/24 08:16:50;;;;;;;1.30;0.35;;;;;;;;;;5088137;28;20028;-71
2021/05/24 08:19:16;;;;;;;2.15;0.63;;;;;;;;;;5091731;28;20040;-70
2021/05/24 08:21:45;;;;;;;1.55;0.32;;;;;;;;;;5091751;28;20456;-70
2021/05/24 08:24:11;;;;;;;0.90;0.25;;;;;;;;;;5081449;28;20115;-70
2021/05/24 08:26:37;;;;;;;2.58;0.50;;;;;;;;;;5090094;28;20158;-70
2021/05/24 08:29:02;;;;;;;1.10;0.50;;;;;;;;;;5089856;28;20048;-70
2021/05/24 08:31:27;;;;;;;1.75;0.50;;;;;;;;;;5082196;28;20032;-74
2021/05/24 08:33:53;;;;;;;2.25;0.50;;;;;;;;;;5088457;28;20047;-70
2021/05/24 08:36:18;;;;;;;0.70;0.30;;;;;;;;;;5090855;28;20024;-74
2021/05/24 08:38:43;;;;;;;1.30;0.57;;;;;;;;;;5092376;28;20028;-75
2021/05/24 08:41:09;;;;;;;2.67;0.57;;;;;;;;;;5090949;28;20028;-74
2021/05/24 08:43:35;;;;;;;2.42;0.40;;;;;;;;;;5093505;28;20043;-76
2021/05/24 08:46:01;;;;;;;3.17;0.60;;;;;;;;;;5090315;28;20022;-77
2021/05/24 08:48:26;;;;;;;1.90;0.40;;;;;;;;;;5095346;28;20024;-76
2021/05/24 08:50:52;;;;;;;0.90;0.30;;;;;;;;;;5094425;28;20023;-75
2021/05/24 08:53:17;;;;;;;1.15;0.40;;;;;;;;;;5094578;28;20024;-75
2021/05/24 08:55:42;;;;;;;1.63;0.40;;;;;;;;;;5094261;28;20028;-76
2021/05/24 08:58:08;;;;;;;2.95;0.30;;;;;;;;;;5093051;28;20063;-75
2021/05/24 09:00:34;;;;;;;1.85;0.40;;;;;;;;;;5088324;28;20024;-75
2021/05/24 09:02:59;;;;;;;1.45;0.20;;;;;;;;;;5093338;28;20047;-71
2021/05/24 09:05:32;;;;;;;1.42;0.30;;;;;;;;;;5088664;28;20526;-71
2021/05/24 09:07:58;;;;;;;0.82;0.20;;;;;;;;;;5093423;28;20020;-71
2021/05/24 09:10:27;;;;;;;1.88;0.40;;;;;;;;;;5094345;28;20024;-71
2021/05/24 09:12:53;;;;;;;3.45;0.40;;;;;;;;;;5094168;28;20093;-73
2021/05/24 09:15:19;;;;;;;1.42;0.32;;;;;;;;;;5085068;28;20008;-75
2021/05/24 09:17:49;;;;;;;1.20;0.30;;;;;;;;;;5091918;28;20468;-73
2021/05/24 09:23:17;;;;;;;2.20;0.30;;;;;;;;;;5092093;28;20035;-72
2021/05/24 09:25:50;;;;;;;2.47;0.30;;;;;;;;;;5085932;28;20428;-72
2021/05/24 09:28:26;;;;;;;3.08;0.38;;;;;;;;;;5089706;28;20024;-72
2021/05/24 09:31:00;;;;;;;5.57;0.60;;;;;;;;;;5079571;28;20016;-74
2021/05/24 09:33:26;;;;;;;2.33;0.50;;;;;;;;;;5091224;28;20432;-74
2021/05/24 09:35:52;;;;;;;0.90;0.20;;;;;;;;;;5094061;28;20060;-71
2021/05/24 09:38:18;;;;;;;2.15;0.30;;;;;;;;;;5092530;28;20365;-71
2021/05/24 09:40:49;;;;;;;0.80;0.30;;;;;;;;;;5087534;28;20401;-71
2021/05/24 09:43:14;;;;;;;1.77;0.40;;;;;;;;;;5086142;28;20031;-70
2021/05/24 09:45:40;;;;;;;4.72;0.40;;;;;;;;;;5087802;28;20095;-70
2021/05/24 09:48:05;;;;;;;3.50;0.40;;;;;;;;;;5088298;28;20031;-67
2021/05/24 09:50:30;;;;;;;2.60;0.40;;;;;;;;;;5093807;28;20073;-66
2021/05/24 09:52:56;;;;;;;2.85;0.50;;;;;;;;;;5093917;28;20020;-65
2021/05/24 09:55:22;;;;;;;1.85;0.22;;;;;;;;;;5083419;28;20021;-66
2021/05/24 09:57:52;;;;;;;1.40;0.50;;;;;;;;;;5088554;28;20020;-68
2021/05/24 10:00:20;;;;;;;5.72;1.85;;;;;;;;;;5089682;28;20401;-68
2021/05/24 10:02:46;;;;;;;2.85;0.60;;;;;;;;;;5089907;28;20044;-67
2021/05/24 10:05:12;;;;;;;1.85;0.32;;;;;;;;;;5084585;28;20019;-69
2021/05/24 10:07:37;;;;;;;0.40;0.40;;;;;;;;;;5085540;28;20035;-67
2021/05/24 10:10:03;;;;;;;2.40;0.43;;;;;;;;;;5083028;28;20035;-68
2021/05/24 10:12:28;;;;;;;2.00;0.45;;;;;;;;;;5079406;28;20449;-69
2021/05/24 10:14:55;;;;;;;2.92;0.30;;;;;;;;;;5085137;28;20051;-69
2021/05/24 10:17:21;;;;;;;2.67;0.63;;;;;;;;;;5087940;28;20028;-68
2021/05/24 10:19:46;;;;;;;0.98;0.30;;;;;;;;;;5086550;28;20081;-68
2021/05/24 10:22:11;;;;;;;1.58;0.40;;;;;;;;;;5087726;28;20479;-68
2021/05/24 10:24:37;;;;;;;2.30;0.63;;;;;;;;;;5084255;28;20035;-68
2021/05/24 10:27:02;;;;;;;2.25;0.38;;;;;;;;;;5085242;28;20108;-68
2021/05/24 10:29:29;;;;;;;2.63;0.68;;;;;;;;;;5077798;28;20028;-69
2021/05/24 10:31:54;;;;;;;1.88;0.30;;;;;;;;;;5084908;28;20023;-68
2021/05/24 10:34:21;;;;;;;3.83;0.47;;;;;;;;;;5083352;28;20126;-69
2021/05/24 10:37:05;;;;;;;1.55;0.60;;;;;;;;;;5085277;28;20119;-68
2021/05/24 10:39:42;;;;;;;1.45;0.40;;;;;;;;;;5086298;28;20028;-68
2021/05/24 10:42:11;;;;;;;1.35;0.30;;;;;;;;;;5085661;28;20565;-68
2021/05/24 10:44:38;;;;;;;1.75;0.40;;;;;;;;;;5087482;28;20106;-68
2021/05/24 10:47:20;;;;;;;1.13;0.22;;;;;;;;;;5088162;28;20028;-66
2021/05/24 10:50:02;;;;;;;0.22;0.13;;;;;;;;;;5084039;28;20054;-65
2021/05/24 10:52:28;;;;;;;3.70;0.30;;;;;;;;;;5082052;28;20099;-65
2021/05/24 10:54:53;;;;;;;1.50;0.40;;;;;;;;;;5085109;28;20024;-66
2021/05/24 10:57:19;;;;;;;3.13;0.20;;;;;;;;;;5086467;28;20499;-66
2021/05/24 10:59:46;;;;;;;1.58;0.43;;;;;;;;;;5087175;28;20039;-65
2021/05/24 11:02:23;;;;;;;1.42;0.30;;;;;;;;;;5087671;28;20055;-65
2021/05/24 11:04:57;;;;;;;1.75;0.50;;;;;;;;;;5083526;28;20353;-65
2021/05/24 11:07:29;;;;;;;1.17;0.50;;;;;;;;;;5078789;28;20024;-65
2021/05/24 11:10:13;;;;;;;0.85;0.22;;;;;;;;;;5085298;28;20542;-65
2021/05/24 11:12:38;;;;;;;3.75;0.43;;;;;;;;;;5084896;28;20035;-66
2021/05/24 11:15:11;;;;;;;1.45;0.38;;;;;;;;;;5083225;28;20020;-65
2021/05/24 11:17:55;;;;;;;1.05;0.30;;;;;;;;;;5089501;28;20036;-65
2021/05/24 11:20:33;;;;;;;1.05;0.32;;;;;;;;;;5079267;28;20081;-64
2021/05/24 11:23:33;;;;;;;0.35;0.22;;;;;;;;;;5082018;28;20024;-64
2021/05/24 11:26:17;;;;;;;2.08;0.77;;;;;;;;;;5080528;28;20024;-67
2021/05/24 11:28:52;;;;;;;0.85;0.28;;;;;;;;;;5079941;28;20024;-67
2021/05/24 11:31:19;;;;;;;1.70;0.30;;;;;;;;;;5085613;28;20052;-67
2021/05/24 11:33:47;;;;;;;2.38;0.50;;;;;;;;;;5085487;28;20089;-67
2021/05/24 11:36:14;;;;;;;0.75;0.30;;;;;;;;;;5083259;28;20031;-67
2021/05/24 11:38:40;;;;;;;1.27;0.55;;;;;;;;;;5087789;28;20028;-67
2021/05/24 11:41:12;;;;;;;1.10;0.30;;;;;;;;;;5081029;28;20418;-67
2021/05/24 11:43:39;;;;;;;1.88;0.50;;;;;;;;;;5078452;28;20060;-67
2021/05/24 11:46:06;;;;;;;0.67;0.40;;;;;;;;;;5083792;28;20052;-67
2021/05/24 11:48:41;;;;;;;0.57;0.27;;;;;;;;;;5085440;28;20050;-67
2021/05/24 11:51:09;;;;;;;0.50;0.33;;;;;;;;;;5079100;28;20048;-67
2021/05/24 11:53:35;;;;;;;0.63;0.33;;;;;;;;;;5085978;28;20032;-68
2021/05/24 11:56:10;;;;;;;0.83;0.37;;;;;;;;;;5087210;28;20031;-68
2021/05/24 11:58:54;;;;;;;1.73;0.30;;;;;;;;;;5087702;28;20710;-68
2021/05/24 12:01:19;;;;;;;2.40;0.37;;;;;;;;;;5076137;28;20063;-68
2021/05/24 12:03:48;;;;;;;0.60;0.20;;;;;;;;;;5088241;28;20076;-68
2021/05/24 12:06:13;;;;;;;2.30;0.30;;;;;;;;;;5089029;28;20024;-68
2021/05/24 12:08:41;;;;;;;0.98;0.20;;;;;;;;;;5088860;28;20020;-68
2021/05/24 12:11:08;;;;;;;1.47;0.40;;;;;;;;;;5088775;28;20125;-68
2021/05/24 12:13:53;;;;;;;1.17;0.33;;;;;;;;;;5091125;28;20032;-68
2021/05/24 12:16:19;;;;;;;0.73;0.30;;;;;;;;;;5092180;28;20032;-68
2021/05/24 12:18:54;;;;;;;1.23;0.40;;;;;;;;;;5092385;28;20115;-68
2021/05/24 12:21:31;;;;;;;1.42;0.50;;;;;;;;;;5091656;28;20032;-68
2021/05/24 12:23:57;;;;;;;1.08;0.32;;;;;;;;;;5079157;28;20144;-69
2021/05/24 12:26:22;;;;;;;1.33;0.20;;;;;;;;;;5087296;28;20061;-69
2021/05/24 12:28:48;;;;;;;0.65;0.30;;;;;;;;;;5092332;28;20020;-68
2021/05/24 12:31:13;;;;;;;0.67;0.30;;;;;;;;;;5092150;28;20031;-68
2021/05/24 12:33:42;;;;;;;3.13;0.40;;;;;;;;;;5091684;28;20036;-68
2021/05/24 12:36:08;;;;;;;3.43;0.40;;;;;;;;;;5092405;28;20028;-69
2021/05/24 12:38:41;;;;;;;1.43;0.40;;;;;;;;;;5092058;28;20085;-68
2021/05/24 12:41:07;;;;;;;2.10;0.50;;;;;;;;;;5091689;28;20498;-68
2021/05/24 12:43:32;;;;;;;0.50;0.30;;;;;;;;;;5092021;28;20031;-68
2021/05/24 12:45:57;;;;;;;1.73;0.50;;;;;;;;;;5091503;28;20062;-68
2021/05/24 12:48:31;;;;;;;0.73;0.40;;;;;;;;;;5083278;28;20043;-68
2021/05/24 12:50:57;;;;;;;1.47;0.30;;;;;;;;;;5091757;28;20062;-68
2021/05/24 12:53:23;;;;;;;2.30;0.40;;;;;;;;;;5080716;28;20059;-68
2021/05/24 12:55:49;;;;;;;3.00;0.90;;;;;;;;;;5085490;28;20024;-69
2021/05/24 12:58:16;;;;;;;2.17;0.67;;;;;;;;;;5088741;28;20106;-68
2021/05/24 13:00:42;;;;;;;0.83;0.40;;;;;;;;;;5088782;28;20039;-68
2021/05/24 13:03:07;;;;;;;1.40;0.80;;;;;;;;;;5081557;28;20076;-68
2021/05/24 13:05:33;;;;;;;1.83;0.50;;;;;;;;;;5078831;28;20063;-68
2021/05/24 13:07:58;;;;;;;1.97;0.83;;;;;;;;;;5087165;28;20503;-68
2021/05/24 13:10:27;;;;;;;2.23;0.73;;;;;;;;;;5082618;28;20035;-68
2021/05/24 13:12:59;;;;;;;0.40;0.40;;;;;;;;;;5086327;28;20506;-68
2021/05/24 13:15:33;;;;;;;0.90;0.43;;;;;;;;;;5085631;28;20032;-68
2021/05/24 13:18:09;;;;;;;0.53;0.30;;;;;;;;;;5087073;28;20028;-68
2021/05/24 13:31:07;;;;;;;0.70;0.30;;;;;;;;;;5085284;28;20024;-68
2021/05/24 13:33:36;;;;;;;0.70;0.50;;;;;;;;;;5086859;28;20492;-68
2021/05/24 13:36:10;;;;;;;1.87;0.60;;;;;;;;;;5086172;28;20031;-69
2021/05/24 13:38:36;;;;;;;2.40;0.50;;;;;;;;;;5081863;28;20087;-69
2021/05/24 13:41:01;;;;;;;3.10;0.70;;;;;;;;;;5082857;28;20111;-69
2021/05/24 13:43:26;;;;;;;1.40;0.40;;;;;;;;;;5087482;28;20034;-68
2021/05/24 13:45:51;;;;;;;1.20;0.40;;;;;;;;;;5084114;28;20103;-69
2021/05/24 13:48:17;;;;;;;2.67;0.70;;;;;;;;;;5089507;28;20027;-69
2021/05/24 13:50:42;;;;;;;2.63;0.83;;;;;;;;;;5084885;28;20038;-69
2021/05/24 13:53:07;;;;;;;3.23;0.70;;;;;;;;;;5089697;28;20028;-69
2021/05/24 13:55:33;;;;;;;2.60;0.60;;;;;;;;;;5086127;28;20101;-69
2021/05/24 13:57:58;;;;;;;3.03;1.00;;;;;;;;;;5085251;28;20068;-69
2021/05/24 14:00:29;;;;;;;3.77;0.93;;;;;;;;;;5083471;28;20427;-69
2021/05/24 14:02:55;;;;;;;6.43;0.70;;;;;;;;;;5080636;28;20070;-69
2021/05/24 14:05:20;;;;;;;1.00;0.60;;;;;;;;;;5084693;28;20410;-69
2021/05/24 14:07:46;;;;;;;1.87;0.90;;;;;;;;;;5088605;28;20035;-69
2021/05/24 14:10:15;;;;;;;2.03;0.73;;;;;;;;;;5078757;28;20055;-69
2021/05/24 14:12:40;;;;;;;1.87;0.80;;;;;;;;;;5087838;28;20136;-69
2021/05/24 14:15:05;;;;;;;1.63;0.90;;;;;;;;;;5088241;28;20145;-68
2021/05/24 14:17:31;;;;;;;4.00;0.70;;;;;;;;;;5086693;28;20032;-69
2021/05/24 14:19:56;;;;;;;2.53;1.17;;;;;;;;;;5078357;28;20450;-69
2021/05/24 14:22:21;;;;;;;1.73;0.90;;;;;;;;;;5079656;28;20043;-69
2021/05/24 14:24:46;;;;;;;7.83;1.00;;;;;;;;;;5083258;28;20028;-69
2021/05/24 14:27:12;;;;;;;3.63;0.60;;;;;;;;;;5082653;28;20032;-69
2021/05/24 14:29:37;;;;;;;4.33;0.83;;;;;;;;;;5079552;28;20033;-69
2021/05/24 14:32:02;;;;;;;1.33;0.60;;;;;;;;;;5075206;28;20089;-69
2021/05/24 14:34:28;;;;;;;1.43;0.83;;;;;;;;;;5085225;28;20116;-68
2021/05/24 14:36:54;;;;;;;2.43;1.20;;;;;;;;;;5081045;28;20444;-69
2021/05/24 14:39:19;;;;;;;4.50;1.00;;;;;;;;;;5076963;28;20043;-68
2021/05/24 14:41:45;;;;;;;1.53;0.80;;;;;;;;;;5085512;28;20078;-68
2021/05/24 14:44:10;;;;;;;3.60;0.80;;;;;;;;;;5086352;28;20089;-70
2021/05/24 14:46:35;;;;;;;1.10;0.60;;;;;;;;;;5081813;28;20531;-69
2021/05/24 14:49:02;;;;;;;3.90;0.70;;;;;;;;;;5084455;28;20084;-68
2021/05/24 14:51:32;;;;;;;2.27;0.60;;;;;;;;;;5086834;28;20486;-69
2021/05/24 14:53:58;;;;;;;2.33;0.60;;;;;;;;;;5083536;28;20035;-68